sensor_id;sensor_type;location;lat;lon;timestamp;P1;durP1;ratioP1;P2;durP2;ratioP2
76714;SDS011;65644;44.990;20.288;2024-03-08T00:00:58;52.13;;;29.83;;
76714;SDS011;65644;44.990;20.288;2024-03-08T00:03:24;61.78;;;32.65;;
76714;SDS011;65644;44.990;20.288;2024-03-08T00:05:50;49.53;;;29.38;;
76714;SDS011;65644;44.990;20.288;2024-03-08T00:08:16;44.10;;;26.25;;
76714;SDS011;65644;44.990;20.288;2024-03-08T00:10:43;33.78;;;22.63;;
76714;SDS011;65644;44.990;20.288;2024-03-08T00:13:09;60.47;;;32.25;;
76714;SDS011;65644;44.990;20.288;2024-03-08T00:15:35;79.38;;;37.28;;
76714;SDS011;65644;44.990;20.288;2024-03-08T00:18:01;55.67;;;30.52;;
76714;SDS011;65644;44.990;20.288;2024-03-08T00:20:27;73.38;;;39.60;;
76714;SDS011;65644;44.990;20.288;2024-03-08T00:22:53;52.08;;;31.65;;
76714;SDS011;65644;44.990;20.288;2024-03-08T00:25:22;33.38;;;23.30;;
76714;SDS011;65644;44.990;20.288;2024-03-08T00:27:49;37.35;;;25.90;;
76714;SDS011;65644;44.990;20.288;2024-03-08T00:30:15;34.40;;;24.02;;
76714;SDS011;65644;44.990;20.288;2024-03-08T00:32:48;39.70;;;26.15;;
76714;SDS011;65644;44.990;20.288;2024-03-08T00:35:14;45.45;;;29.55;;
76714;SDS011;65644;44.990;20.288;2024-03-08T00:37:41;62.30;;;35.92;;
76714;SDS011;65644;44.990;20.288;2024-03-08T00:40:07;74.88;;;40.85;;
76714;SDS011;65644;44.990;20.288;2024-03-08T00:42:34;50.55;;;32.97;;
76714;SDS011;65644;44.990;20.288;2024-03-08T00:45:01;60.88;;;37.08;;
76714;SDS011;65644;44.990;20.288;2024-03-08T00:47:27;52.30;;;33.15;;
76714;SDS011;65644;44.990;20.288;2024-03-08T00:49:54;43.83;;;31.15;;
76714;SDS011;65644;44.990;20.288;2024-03-08T00:52:21;43.35;;;29.05;;
76714;SDS011;65644;44.990;20.288;2024-03-08T00:54:49;35.35;;;25.58;;
76714;SDS011;65644;44.990;20.288;2024-03-08T00:57:15;34.63;;;24.75;;
76714;SDS011;65644;44.990;20.288;2024-03-08T00:59:41;33.83;;;25.27;;
76714;SDS011;65644;44.990;20.288;2024-03-08T01:02:07;30.08;;;23.17;;
76714;SDS011;65644;44.990;20.288;2024-03-08T01:04:37;32.50;;;23.95;;
76714;SDS011;65644;44.990;20.288;2024-03-08T01:07:03;33.30;;;24.08;;
76714;SDS011;65644;44.990;20.288;2024-03-08T01:09:29;30.35;;;22.95;;
76714;SDS011;65644;44.990;20.288;2024-03-08T01:11:55;29.65;;;22.67;;
76714;SDS011;65644;44.990;20.288;2024-03-08T01:14:24;30.75;;;21.65;;
76714;SDS011;65644;44.990;20.288;2024-03-08T01:16:51;27.05;;;19.95;;
76714;SDS011;65644;44.990;20.288;2024-03-08T01:19:17;26.27;;;20.17;;
76714;SDS011;65644;44.990;20.288;2024-03-08T01:21:43;25.90;;;20.70;;
76714;SDS011;65644;44.990;20.288;2024-03-08T01:24:09;27.92;;;22.10;;
76714;SDS011;65644;44.990;20.288;2024-03-08T01:26:35;26.55;;;20.55;;
76714;SDS011;65644;44.990;20.288;2024-03-08T01:29:02;28.90;;;21.35;;
76714;SDS011;65644;44.990;20.288;2024-03-08T01:31:32;26.80;;;20.13;;
76714;SDS011;65644;44.990;20.288;2024-03-08T01:33:58;29.13;;;21.70;;
76714;SDS011;65644;44.990;20.288;2024-03-08T01:36:24;32.45;;;21.52;;
76714;SDS011;65644;44.990;20.288;2024-03-08T01:38:51;29.63;;;21.48;;
76714;SDS011;65644;44.990;20.288;2024-03-08T01:41:25;25.27;;;20.25;;
76714;SDS011;65644;44.990;20.288;2024-03-08T01:43:57;28.08;;;21.48;;
76714;SDS011;65644;44.990;20.288;2024-03-08T01:46:24;29.58;;;21.45;;
76714;SDS011;65644;44.990;20.288;2024-03-08T01:48:50;29.33;;;21.45;;
76714;SDS011;65644;44.990;20.288;2024-03-08T01:51:16;29.58;;;22.33;;
76714;SDS011;65644;44.990;20.288;2024-03-08T01:53:45;26.67;;;20.50;;
76714;SDS011;65644;44.990;20.288;2024-03-08T01:56:12;28.63;;;21.80;;
76714;SDS011;65644;44.990;20.288;2024-03-08T01:58:38;29.05;;;22.33;;
76714;SDS011;65644;44.990;20.288;2024-03-08T02:01:08;28.33;;;21.83;;
76714;SDS011;65644;44.990;20.288;2024-03-08T02:03:36;31.60;;;23.73;;
76714;SDS011;65644;44.990;20.288;2024-03-08T02:06:03;32.40;;;22.45;;
76714;SDS011;65644;44.990;20.288;2024-03-08T02:08:30;29.23;;;22.50;;
76714;SDS011;65644;44.990;20.288;2024-03-08T02:10:56;31.20;;;24.15;;
76714;SDS011;65644;44.990;20.288;2024-03-08T02:13:23;30.75;;;22.80;;
76714;SDS011;65644;44.990;20.288;2024-03-08T02:15:52;31.48;;;22.42;;
76714;SDS011;65644;44.990;20.288;2024-03-08T02:18:19;30.85;;;21.90;;
76714;SDS011;65644;44.990;20.288;2024-03-08T02:23:18;28.70;;;20.75;;
76714;SDS011;65644;44.990;20.288;2024-03-08T02:25:44;30.02;;;21.83;;
76714;SDS011;65644;44.990;20.288;2024-03-08T02:28:11;28.48;;;21.60;;
76714;SDS011;65644;44.990;20.288;2024-03-08T02:30:37;26.42;;;20.95;;
76714;SDS011;65644;44.990;20.288;2024-03-08T02:33:06;25.33;;;20.17;;
76714;SDS011;65644;44.990;20.288;2024-03-08T02:35:34;26.13;;;21.13;;
76714;SDS011;65644;44.990;20.288;2024-03-08T02:38:01;27.98;;;21.73;;
76714;SDS011;65644;44.990;20.288;2024-03-08T02:40:28;27.70;;;21.55;;
76714;SDS011;65644;44.990;20.288;2024-03-08T02:42:54;26.45;;;20.13;;
76714;SDS011;65644;44.990;20.288;2024-03-08T02:45:20;25.83;;;19.63;;
76714;SDS011;65644;44.990;20.288;2024-03-08T02:47:47;23.45;;;18.77;;
76714;SDS011;65644;44.990;20.288;2024-03-08T02:50:16;25.98;;;20.70;;
76714;SDS011;65644;44.990;20.288;2024-03-08T02:52:42;26.88;;;20.42;;
76714;SDS011;65644;44.990;20.288;2024-03-08T02:55:09;22.00;;;17.63;;
76714;SDS011;65644;44.990;20.288;2024-03-08T02:57:36;18.63;;;15.80;;
76714;SDS011;65644;44.990;20.288;2024-03-08T03:00:02;21.38;;;15.77;;
76714;SDS011;65644;44.990;20.288;2024-03-08T03:02:29;18.20;;;14.48;;
76714;SDS011;65644;44.990;20.288;2024-03-08T03:04:55;19.77;;;15.93;;
76714;SDS011;65644;44.990;20.288;2024-03-08T03:07:21;21.33;;;16.55;;
76714;SDS011;65644;44.990;20.288;2024-03-08T03:09:47;20.20;;;16.13;;
76714;SDS011;65644;44.990;20.288;2024-03-08T03:12:13;18.65;;;15.90;;
76714;SDS011;65644;44.990;20.288;2024-03-08T03:14:39;18.13;;;15.70;;
76714;SDS011;65644;44.990;20.288;2024-03-08T03:17:06;19.70;;;15.38;;
76714;SDS011;65644;44.990;20.288;2024-03-08T03:19:32;19.55;;;16.17;;
76714;SDS011;65644;44.990;20.288;2024-03-08T03:21:58;21.23;;;16.20;;
76714;SDS011;65644;44.990;20.288;2024-03-08T03:24:24;19.13;;;16.20;;
76714;SDS011;65644;44.990;20.288;2024-03-08T03:26:54;19.80;;;15.52;;
76714;SDS011;65644;44.990;20.288;2024-03-08T03:29:20;18.25;;;14.38;;
76714;SDS011;65644;44.990;20.288;2024-03-08T03:31:46;18.38;;;14.70;;
76714;SDS011;65644;44.990;20.288;2024-03-08T03:34:13;20.48;;;16.30;;
76714;SDS011;65644;44.990;20.288;2024-03-08T03:36:39;17.48;;;14.88;;
76714;SDS011;65644;44.990;20.288;2024-03-08T03:39:08;19.17;;;15.18;;
76714;SDS011;65644;44.990;20.288;2024-03-08T03:41:41;18.10;;;14.77;;
76714;SDS011;65644;44.990;20.288;2024-03-08T03:44:07;17.08;;;14.65;;
76714;SDS011;65644;44.990;20.288;2024-03-08T03:46:34;17.58;;;14.68;;
76714;SDS011;65644;44.990;20.288;2024-03-08T03:49:01;19.38;;;15.00;;
76714;SDS011;65644;44.990;20.288;2024-03-08T03:51:28;17.20;;;14.57;;
76714;SDS011;65644;44.990;20.288;2024-03-08T03:53:55;18.08;;;15.45;;
76714;SDS011;65644;44.990;20.288;2024-03-08T03:56:25;18.20;;;14.88;;
76714;SDS011;65644;44.990;20.288;2024-03-08T03:58:52;19.38;;;14.63;;
76714;SDS011;65644;44.990;20.288;2024-03-08T04:01:18;20.20;;;14.98;;
76714;SDS011;65644;44.990;20.288;2024-03-08T04:03:44;18.55;;;14.85;;
76714;SDS011;65644;44.990;20.288;2024-03-08T04:06:10;17.75;;;14.95;;
76714;SDS011;65644;44.990;20.288;2024-03-08T04:08:37;18.95;;;14.60;;
76714;SDS011;65644;44.990;20.288;2024-03-08T04:11:03;18.17;;;14.75;;
76714;SDS011;65644;44.990;20.288;2024-03-08T04:13:29;19.30;;;15.50;;
76714;SDS011;65644;44.990;20.288;2024-03-08T04:15:55;17.35;;;14.32;;
76714;SDS011;65644;44.990;20.288;2024-03-08T04:18:21;17.42;;;14.70;;
76714;SDS011;65644;44.990;20.288;2024-03-08T04:20:47;17.13;;;14.93;;
76714;SDS011;65644;44.990;20.288;2024-03-08T04:23:13;19.48;;;15.50;;
76714;SDS011;65644;44.990;20.288;2024-03-08T04:25:41;18.92;;;15.48;;
76714;SDS011;65644;44.990;20.288;2024-03-08T04:28:07;18.20;;;14.48;;
76714;SDS011;65644;44.990;20.288;2024-03-08T04:30:36;18.45;;;15.30;;
76714;SDS011;65644;44.990;20.288;2024-03-08T04:33:02;18.48;;;15.05;;
76714;SDS011;65644;44.990;20.288;2024-03-08T04:35:29;21.05;;;15.98;;
76714;SDS011;65644;44.990;20.288;2024-03-08T04:37:55;18.80;;;14.57;;
76714;SDS011;65644;44.990;20.288;2024-03-08T04:40:22;18.15;;;14.73;;
76714;SDS011;65644;44.990;20.288;2024-03-08T04:42:49;18.65;;;15.00;;
76714;SDS011;65644;44.990;20.288;2024-03-08T04:45:16;18.05;;;14.38;;
76714;SDS011;65644;44.990;20.288;2024-03-08T04:47:42;18.50;;;14.85;;
76714;SDS011;65644;44.990;20.288;2024-03-08T04:50:08;17.85;;;14.32;;
76714;SDS011;65644;44.990;20.288;2024-03-08T04:52:36;17.77;;;14.85;;
76714;SDS011;65644;44.990;20.288;2024-03-08T04:55:02;15.27;;;13.00;;
76714;SDS011;65644;44.990;20.288;2024-03-08T04:57:32;20.60;;;15.20;;
76714;SDS011;65644;44.990;20.288;2024-03-08T04:59:58;19.10;;;14.18;;
76714;SDS011;65644;44.990;20.288;2024-03-08T05:02:24;38.30;;;22.92;;
76714;SDS011;65644;44.990;20.288;2024-03-08T05:04:50;39.60;;;22.38;;
76714;SDS011;65644;44.990;20.288;2024-03-08T05:07:17;38.45;;;23.30;;
76714;SDS011;65644;44.990;20.288;2024-03-08T05:09:44;25.58;;;17.27;;
76714;SDS011;65644;44.990;20.288;2024-03-08T05:12:16;42.83;;;25.67;;
76714;SDS011;65644;44.990;20.288;2024-03-08T05:14:42;36.35;;;23.00;;
76714;SDS011;65644;44.990;20.288;2024-03-08T05:17:08;28.60;;;19.77;;
76714;SDS011;65644;44.990;20.288;2024-03-08T05:19:35;29.52;;;20.00;;
76714;SDS011;65644;44.990;20.288;2024-03-08T05:22:02;33.28;;;23.02;;
76714;SDS011;65644;44.990;20.288;2024-03-08T05:24:28;25.17;;;16.90;;
76714;SDS011;65644;44.990;20.288;2024-03-08T05:26:55;21.48;;;15.23;;
76714;SDS011;65644;44.990;20.288;2024-03-08T05:29:21;24.58;;;17.48;;
76714;SDS011;65644;44.990;20.288;2024-03-08T05:31:49;30.45;;;20.25;;
76714;SDS011;65644;44.990;20.288;2024-03-08T05:34:16;30.67;;;22.80;;
76714;SDS011;65644;44.990;20.288;2024-03-08T05:36:42;31.58;;;22.58;;
76714;SDS011;65644;44.990;20.288;2024-03-08T05:39:10;23.17;;;18.63;;
76714;SDS011;65644;44.990;20.288;2024-03-08T05:41:37;18.48;;;15.60;;
76714;SDS011;65644;44.990;20.288;2024-03-08T05:44:04;33.53;;;24.35;;
76714;SDS011;65644;44.990;20.288;2024-03-08T05:46:30;26.50;;;21.05;;
76714;SDS011;65644;44.990;20.288;2024-03-08T05:48:56;23.60;;;18.27;;
76714;SDS011;65644;44.990;20.288;2024-03-08T05:51:24;15.30;;;13.02;;
76714;SDS011;65644;44.990;20.288;2024-03-08T05:53:53;21.35;;;16.77;;
76714;SDS011;65644;44.990;20.288;2024-03-08T05:56:22;18.13;;;14.82;;
76714;SDS011;65644;44.990;20.288;2024-03-08T05:58:49;13.65;;;11.38;;
76714;SDS011;65644;44.990;20.288;2024-03-08T06:01:15;12.55;;;10.77;;
76714;SDS011;65644;44.990;20.288;2024-03-08T06:03:41;14.30;;;12.23;;
76714;SDS011;65644;44.990;20.288;2024-03-08T06:06:14;12.50;;;10.88;;
76714;SDS011;65644;44.990;20.288;2024-03-08T06:08:42;14.18;;;11.25;;
76714;SDS011;65644;44.990;20.288;2024-03-08T06:11:09;15.07;;;11.15;;
76714;SDS011;65644;44.990;20.288;2024-03-08T06:13:35;16.05;;;11.57;;
76714;SDS011;65644;44.990;20.288;2024-03-08T06:16:01;15.45;;;10.90;;
76714;SDS011;65644;44.990;20.288;2024-03-08T06:18:32;12.52;;;11.10;;
76714;SDS011;65644;44.990;20.288;2024-03-08T06:20:59;12.57;;;10.48;;
76714;SDS011;65644;44.990;20.288;2024-03-08T06:23:25;14.45;;;11.80;;
76714;SDS011;65644;44.990;20.288;2024-03-08T06:25:52;12.60;;;10.25;;
76714;SDS011;65644;44.990;20.288;2024-03-08T06:28:19;12.50;;;10.73;;
76714;SDS011;65644;44.990;20.288;2024-03-08T06:30:45;13.82;;;10.65;;
76714;SDS011;65644;44.990;20.288;2024-03-08T06:33:11;12.13;;;10.15;;
76714;SDS011;65644;44.990;20.288;2024-03-08T06:35:37;11.40;;;9.30;;
76714;SDS011;65644;44.990;20.288;2024-03-08T06:38:04;13.88;;;9.60;;
76714;SDS011;65644;44.990;20.288;2024-03-08T06:40:30;13.05;;;10.38;;
76714;SDS011;65644;44.990;20.288;2024-03-08T06:42:56;15.25;;;10.10;;
76714;SDS011;65644;44.990;20.288;2024-03-08T06:45:22;11.18;;;9.73;;
76714;SDS011;65644;44.990;20.288;2024-03-08T06:47:49;11.70;;;9.82;;
76714;SDS011;65644;44.990;20.288;2024-03-08T06:50:15;13.65;;;10.80;;
76714;SDS011;65644;44.990;20.288;2024-03-08T06:52:41;10.80;;;9.65;;
76714;SDS011;65644;44.990;20.288;2024-03-08T06:55:08;14.13;;;10.57;;
76714;SDS011;65644;44.990;20.288;2024-03-08T06:57:38;11.68;;;10.48;;
76714;SDS011;65644;44.990;20.288;2024-03-08T07:00:06;12.25;;;10.52;;
76714;SDS011;65644;44.990;20.288;2024-03-08T07:02:34;11.95;;;10.35;;
76714;SDS011;65644;44.990;20.288;2024-03-08T07:05:01;12.18;;;9.93;;
76714;SDS011;65644;44.990;20.288;2024-03-08T07:07:28;11.80;;;10.00;;
76714;SDS011;65644;44.990;20.288;2024-03-08T07:09:57;13.90;;;10.52;;
76714;SDS011;65644;44.990;20.288;2024-03-08T07:12:23;13.73;;;10.85;;
76714;SDS011;65644;44.990;20.288;2024-03-08T07:14:49;11.65;;;10.43;;
76714;SDS011;65644;44.990;20.288;2024-03-08T07:17:15;13.93;;;10.93;;
76714;SDS011;65644;44.990;20.288;2024-03-08T07:19:44;13.90;;;11.85;;
76714;SDS011;65644;44.990;20.288;2024-03-08T07:22:10;14.50;;;12.02;;
76714;SDS011;65644;44.990;20.288;2024-03-08T07:24:36;17.00;;;12.85;;
76714;SDS011;65644;44.990;20.288;2024-03-08T07:27:35;20.23;;;13.65;;
76714;SDS011;65644;44.990;20.288;2024-03-08T07:30:02;25.33;;;17.67;;
76714;SDS011;65644;44.990;20.288;2024-03-08T07:32:28;25.88;;;17.83;;
76714;SDS011;65644;44.990;20.288;2024-03-08T07:34:58;28.70;;;18.85;;
76714;SDS011;65644;44.990;20.288;2024-03-08T07:37:24;25.85;;;18.10;;
76714;SDS011;65644;44.990;20.288;2024-03-08T07:39:50;27.98;;;18.00;;
76714;SDS011;65644;44.990;20.288;2024-03-08T07:42:16;28.00;;;18.85;;
76714;SDS011;65644;44.990;20.288;2024-03-08T07:44:42;27.95;;;18.30;;
76714;SDS011;65644;44.990;20.288;2024-03-08T07:47:11;30.17;;;20.02;;
76714;SDS011;65644;44.990;20.288;2024-03-08T07:49:37;29.88;;;19.42;;
76714;SDS011;65644;44.990;20.288;2024-03-08T07:52:03;29.65;;;19.23;;
76714;SDS011;65644;44.990;20.288;2024-03-08T07:54:32;28.63;;;19.25;;
76714;SDS011;65644;44.990;20.288;2024-03-08T07:57:00;27.65;;;19.13;;
76714;SDS011;65644;44.990;20.288;2024-03-08T07:59:28;28.08;;;19.45;;
76714;SDS011;65644;44.990;20.288;2024-03-08T08:01:55;26.90;;;18.45;;
76714;SDS011;65644;44.990;20.288;2024-03-08T08:04:22;27.63;;;18.80;;
76714;SDS011;65644;44.990;20.288;2024-03-08T08:06:50;27.95;;;18.60;;
76714;SDS011;65644;44.990;20.288;2024-03-08T08:09:16;28.77;;;19.50;;
76714;SDS011;65644;44.990;20.288;2024-03-08T08:11:53;28.83;;;19.08;;
76714;SDS011;65644;44.990;20.288;2024-03-08T08:14:19;30.80;;;19.90;;
76714;SDS011;65644;44.990;20.288;2024-03-08T08:16:46;28.23;;;19.98;;
76714;SDS011;65644;44.990;20.288;2024-03-08T08:19:14;30.92;;;19.80;;
76714;SDS011;65644;44.990;20.288;2024-03-08T08:21:41;28.13;;;19.70;;
76714;SDS011;65644;44.990;20.288;2024-03-08T08:24:07;30.60;;;19.95;;
76714;SDS011;65644;44.990;20.288;2024-03-08T08:26:34;27.35;;;19.52;;
76714;SDS011;65644;44.990;20.288;2024-03-08T08:29:01;29.63;;;19.63;;
76714;SDS011;65644;44.990;20.288;2024-03-08T08:31:27;30.60;;;19.67;;
76714;SDS011;65644;44.990;20.288;2024-03-08T08:33:53;28.48;;;19.42;;
76714;SDS011;65644;44.990;20.288;2024-03-08T08:36:26;30.00;;;19.90;;
76714;SDS011;65644;44.990;20.288;2024-03-08T08:38:55;27.02;;;18.63;;
76714;SDS011;65644;44.990;20.288;2024-03-08T08:41:23;29.92;;;18.92;;
76714;SDS011;65644;44.990;20.288;2024-03-08T08:43:49;27.95;;;18.20;;
76714;SDS011;65644;44.990;20.288;2024-03-08T08:46:18;29.00;;;19.00;;
76714;SDS011;65644;44.990;20.288;2024-03-08T08:48:46;28.15;;;19.92;;
76714;SDS011;65644;44.990;20.288;2024-03-08T08:51:12;26.38;;;18.80;;
76714;SDS011;65644;44.990;20.288;2024-03-08T08:53:39;28.27;;;18.85;;
76714;SDS011;65644;44.990;20.288;2024-03-08T08:56:11;26.23;;;18.40;;
76714;SDS011;65644;44.990;20.288;2024-03-08T08:58:43;26.60;;;18.60;;
76714;SDS011;65644;44.990;20.288;2024-03-08T09:01:10;28.05;;;18.85;;
76714;SDS011;65644;44.990;20.288;2024-03-08T09:03:37;31.15;;;21.40;;
76714;SDS011;65644;44.990;20.288;2024-03-08T09:06:05;27.65;;;19.27;;
76714;SDS011;65644;44.990;20.288;2024-03-08T09:08:35;23.83;;;17.70;;
76714;SDS011;65644;44.990;20.288;2024-03-08T09:11:01;27.58;;;19.55;;
76714;SDS011;65644;44.990;20.288;2024-03-08T09:13:27;28.88;;;18.48;;
76714;SDS011;65644;44.990;20.288;2024-03-08T09:15:53;26.27;;;18.55;;
76714;SDS011;65644;44.990;20.288;2024-03-08T09:18:19;25.70;;;18.83;;
76714;SDS011;65644;44.990;20.288;2024-03-08T09:20:46;24.90;;;17.30;;
76714;SDS011;65644;44.990;20.288;2024-03-08T09:23:12;23.67;;;16.55;;
76714;SDS011;65644;44.990;20.288;2024-03-08T09:25:40;25.88;;;18.15;;
76714;SDS011;65644;44.990;20.288;2024-03-08T09:28:06;26.63;;;18.05;;
76714;SDS011;65644;44.990;20.288;2024-03-08T09:30:32;25.95;;;17.48;;
76714;SDS011;65644;44.990;20.288;2024-03-08T09:32:59;24.77;;;17.23;;
76714;SDS011;65644;44.990;20.288;2024-03-08T09:35:25;24.02;;;16.27;;
76714;SDS011;65644;44.990;20.288;2024-03-08T09:37:51;21.65;;;16.20;;
76714;SDS011;65644;44.990;20.288;2024-03-08T09:40:18;24.02;;;16.08;;
76714;SDS011;65644;44.990;20.288;2024-03-08T09:42:48;25.05;;;16.67;;
76714;SDS011;65644;44.990;20.288;2024-03-08T09:45:14;26.67;;;17.90;;
76714;SDS011;65644;44.990;20.288;2024-03-08T09:47:41;21.85;;;16.40;;
76714;SDS011;65644;44.990;20.288;2024-03-08T09:50:08;23.85;;;15.95;;
76714;SDS011;65644;44.990;20.288;2024-03-08T09:52:40;22.90;;;17.23;;
76714;SDS011;65644;44.990;20.288;2024-03-08T09:55:09;20.90;;;15.25;;
76714;SDS011;65644;44.990;20.288;2024-03-08T09:57:41;22.02;;;15.57;;
76714;SDS011;65644;44.990;20.288;2024-03-08T10:00:28;23.20;;;15.70;;
76714;SDS011;65644;44.990;20.288;2024-03-08T10:03:00;18.27;;;13.75;;
76714;SDS011;65644;44.990;20.288;2024-03-08T10:05:26;21.15;;;14.77;;
76714;SDS011;65644;44.990;20.288;2024-03-08T10:07:52;22.35;;;15.55;;
76714;SDS011;65644;44.990;20.288;2024-03-08T10:10:18;23.15;;;16.38;;
76714;SDS011;65644;44.990;20.288;2024-03-08T10:12:45;22.23;;;15.32;;
76714;SDS011;65644;44.990;20.288;2024-03-08T10:15:11;23.77;;;16.10;;
76714;SDS011;65644;44.990;20.288;2024-03-08T10:17:38;18.63;;;13.77;;
76714;SDS011;65644;44.990;20.288;2024-03-08T10:20:13;22.73;;;15.73;;
76714;SDS011;65644;44.990;20.288;2024-03-08T10:22:40;23.80;;;15.75;;
76714;SDS011;65644;44.990;20.288;2024-03-08T10:25:12;22.85;;;15.70;;
76714;SDS011;65644;44.990;20.288;2024-03-08T10:27:38;20.95;;;15.00;;
76714;SDS011;65644;44.990;20.288;2024-03-08T10:30:12;26.48;;;15.57;;
76714;SDS011;65644;44.990;20.288;2024-03-08T10:32:39;22.42;;;15.70;;
76714;SDS011;65644;44.990;20.288;2024-03-08T10:35:09;21.70;;;15.90;;
76714;SDS011;65644;44.990;20.288;2024-03-08T10:37:47;23.48;;;16.55;;
76714;SDS011;65644;44.990;20.288;2024-03-08T10:40:15;23.88;;;16.80;;
76714;SDS011;65644;44.990;20.288;2024-03-08T10:42:47;22.35;;;16.00;;
76714;SDS011;65644;44.990;20.288;2024-03-08T10:45:31;23.85;;;16.58;;
76714;SDS011;65644;44.990;20.288;2024-03-08T10:48:02;22.67;;;16.58;;
76714;SDS011;65644;44.990;20.288;2024-03-08T10:50:30;25.20;;;17.98;;
76714;SDS011;65644;44.990;20.288;2024-03-08T10:52:59;23.23;;;16.95;;
76714;SDS011;65644;44.990;20.288;2024-03-08T10:55:26;25.38;;;17.42;;
76714;SDS011;65644;44.990;20.288;2024-03-08T10:57:53;23.15;;;16.17;;
76714;SDS011;65644;44.990;20.288;2024-03-08T11:00:20;21.90;;;16.67;;
76714;SDS011;65644;44.990;20.288;2024-03-08T11:02:56;23.48;;;16.33;;
76714;SDS011;65644;44.990;20.288;2024-03-08T11:05:32;25.20;;;16.40;;
76714;SDS011;65644;44.990;20.288;2024-03-08T11:08:03;23.27;;;16.40;;
76714;SDS011;65644;44.990;20.288;2024-03-08T11:10:29;23.92;;;16.80;;
76714;SDS011;65644;44.990;20.288;2024-03-08T11:12:55;24.52;;;16.63;;
76714;SDS011;65644;44.990;20.288;2024-03-08T11:15:23;25.30;;;18.08;;
76714;SDS011;65644;44.990;20.288;2024-03-08T11:17:50;28.17;;;18.23;;
76714;SDS011;65644;44.990;20.288;2024-03-08T11:20:17;24.35;;;16.98;;
76714;SDS011;65644;44.990;20.288;2024-03-08T11:22:49;24.55;;;17.55;;
76714;SDS011;65644;44.990;20.288;2024-03-08T11:25:37;24.70;;;17.17;;
76714;SDS011;65644;44.990;20.288;2024-03-08T11:28:17;24.80;;;16.90;;
76714;SDS011;65644;44.990;20.288;2024-03-08T11:30:44;25.93;;;17.57;;
76714;SDS011;65644;44.990;20.288;2024-03-08T11:33:12;25.35;;;17.88;;
76714;SDS011;65644;44.990;20.288;2024-03-08T11:35:39;25.40;;;17.60;;
76714;SDS011;65644;44.990;20.288;2024-03-08T11:38:07;25.60;;;18.05;;
76714;SDS011;65644;44.990;20.288;2024-03-08T11:40:33;27.33;;;17.85;;
76714;SDS011;65644;44.990;20.288;2024-03-08T11:43:00;30.92;;;19.00;;
76714;SDS011;65644;44.990;20.288;2024-03-08T11:45:29;25.30;;;17.83;;
76714;SDS011;65644;44.990;20.288;2024-03-08T11:47:55;27.80;;;17.48;;
76714;SDS011;65644;44.990;20.288;2024-03-08T11:50:21;26.13;;;17.95;;
76714;SDS011;65644;44.990;20.288;2024-03-08T11:52:49;24.35;;;18.13;;
76714;SDS011;65644;44.990;20.288;2024-03-08T11:55:15;22.65;;;16.85;;
76714;SDS011;65644;44.990;20.288;2024-03-08T11:57:44;26.92;;;19.48;;
76714;SDS011;65644;44.990;20.288;2024-03-08T12:00:16;26.27;;;17.95;;
76714;SDS011;65644;44.990;20.288;2024-03-08T12:03:04;28.55;;;17.88;;
76714;SDS011;65644;44.990;20.288;2024-03-08T12:05:30;26.50;;;18.48;;
76714;SDS011;65644;44.990;20.288;2024-03-08T12:07:58;27.00;;;18.90;;
76714;SDS011;65644;44.990;20.288;2024-03-08T12:10:24;24.85;;;18.58;;
76714;SDS011;65644;44.990;20.288;2024-03-08T12:12:51;26.85;;;19.00;;
76714;SDS011;65644;44.990;20.288;2024-03-08T12:15:18;25.60;;;17.70;;
76714;SDS011;65644;44.990;20.288;2024-03-08T12:17:45;24.25;;;18.02;;
76714;SDS011;65644;44.990;20.288;2024-03-08T12:20:15;26.73;;;17.48;;
76714;SDS011;65644;44.990;20.288;2024-03-08T12:22:42;24.25;;;17.45;;
76714;SDS011;65644;44.990;20.288;2024-03-08T12:25:08;27.17;;;17.80;;
76714;SDS011;65644;44.990;20.288;2024-03-08T12:27:36;22.85;;;16.70;;
76714;SDS011;65644;44.990;20.288;2024-03-08T12:30:24;26.38;;;18.52;;
76714;SDS011;65644;44.990;20.288;2024-03-08T12:32:55;22.98;;;16.88;;
76714;SDS011;65644;44.990;20.288;2024-03-08T12:35:22;24.02;;;17.60;;
76714;SDS011;65644;44.990;20.288;2024-03-08T12:37:50;27.55;;;18.92;;
76714;SDS011;65644;44.990;20.288;2024-03-08T12:40:17;25.83;;;17.58;;
76714;SDS011;65644;44.990;20.288;2024-03-08T12:42:43;25.63;;;16.88;;
76714;SDS011;65644;44.990;20.288;2024-03-08T12:45:12;25.23;;;17.83;;
76714;SDS011;65644;44.990;20.288;2024-03-08T12:47:38;25.83;;;18.65;;
76714;SDS011;65644;44.990;20.288;2024-03-08T12:50:07;21.60;;;16.00;;
76714;SDS011;65644;44.990;20.288;2024-03-08T12:52:34;24.05;;;17.58;;
76714;SDS011;65644;44.990;20.288;2024-03-08T12:55:00;24.17;;;18.08;;
76714;SDS011;65644;44.990;20.288;2024-03-08T12:57:31;26.75;;;19.20;;
76714;SDS011;65644;44.990;20.288;2024-03-08T12:59:58;24.17;;;17.45;;
76714;SDS011;65644;44.990;20.288;2024-03-08T13:02:25;25.58;;;18.30;;
76714;SDS011;65644;44.990;20.288;2024-03-08T13:04:51;27.30;;;18.63;;
76714;SDS011;65644;44.990;20.288;2024-03-08T13:07:22;26.10;;;18.00;;
76714;SDS011;65644;44.990;20.288;2024-03-08T13:09:53;24.38;;;18.08;;
76714;SDS011;65644;44.990;20.288;2024-03-08T13:12:20;24.77;;;18.08;;
76714;SDS011;65644;44.990;20.288;2024-03-08T13:14:46;31.23;;;19.63;;
76714;SDS011;65644;44.990;20.288;2024-03-08T13:17:13;28.65;;;21.08;;
76714;SDS011;65644;44.990;20.288;2024-03-08T13:19:40;24.60;;;18.15;;
76714;SDS011;65644;44.990;20.288;2024-03-08T13:22:07;26.70;;;20.58;;
76714;SDS011;65644;44.990;20.288;2024-03-08T13:24:38;26.13;;;19.13;;
76714;SDS011;65644;44.990;20.288;2024-03-08T13:27:06;24.48;;;18.23;;
76714;SDS011;65644;44.990;20.288;2024-03-08T13:29:44;26.52;;;19.10;;
76714;SDS011;65644;44.990;20.288;2024-03-08T13:32:11;27.02;;;19.88;;
76714;SDS011;65644;44.990;20.288;2024-03-08T13:34:40;22.85;;;17.92;;
76714;SDS011;65644;44.990;20.288;2024-03-08T13:37:06;23.42;;;18.58;;
76714;SDS011;65644;44.990;20.288;2024-03-08T13:39:35;25.70;;;18.73;;
76714;SDS011;65644;44.990;20.288;2024-03-08T13:42:08;26.05;;;19.70;;
76714;SDS011;65644;44.990;20.288;2024-03-08T13:44:37;29.27;;;20.33;;
76714;SDS011;65644;44.990;20.288;2024-03-08T13:47:04;29.60;;;20.02;;
76714;SDS011;65644;44.990;20.288;2024-03-08T13:49:30;26.80;;;20.52;;
76714;SDS011;65644;44.990;20.288;2024-03-08T13:51:57;23.52;;;18.08;;
76714;SDS011;65644;44.990;20.288;2024-03-08T13:54:26;28.05;;;20.70;;
76714;SDS011;65644;44.990;20.288;2024-03-08T13:56:52;25.25;;;19.08;;
76714;SDS011;65644;44.990;20.288;2024-03-08T13:59:19;25.95;;;19.70;;
76714;SDS011;65644;44.990;20.288;2024-03-08T14:01:47;24.48;;;18.50;;
76714;SDS011;65644;44.990;20.288;2024-03-08T14:04:14;22.35;;;18.65;;
76714;SDS011;65644;44.990;20.288;2024-03-08T14:06:43;27.23;;;19.75;;
76714;SDS011;65644;44.990;20.288;2024-03-08T14:09:14;26.52;;;21.23;;
76714;SDS011;65644;44.990;20.288;2024-03-08T14:11:45;27.15;;;18.38;;
76714;SDS011;65644;44.990;20.288;2024-03-08T14:14:11;26.85;;;18.27;;